sensor_id;sensor_type;location;lat;lon;timestamp;temperature;humidity
12470;DHT22;36499;46.484;13.832;2023-07-20T00:02:04;16.20;99.90
12470;DHT22;36499;46.484;13.832;2023-07-20T00:04:33;16.20;99.90
12470;DHT22;36499;46.484;13.832;2023-07-20T00:07:01;16.20;99.90
12470;DHT22;36499;46.484;13.832;2023-07-20T00:09:28;16.20;99.90
12470;DHT22;36499;46.484;13.832;2023-07-20T00:11:55;16.30;99.90
12470;DHT22;36499;46.484;13.832;2023-07-20T00:14:22;16.30;99.90
12470;DHT22;36499;46.484;13.832;2023-07-20T00:16:50;16.30;99.90
12470;DHT22;36499;46.484;13.832;2023-07-20T00:19:21;16.30;99.90
12470;DHT22;36499;46.484;13.832;2023-07-20T00:21:49;16.40;99.90
12470;DHT22;36499;46.484;13.832;2023-07-20T00:24:17;16.30;99.90
12470;DHT22;36499;46.484;13.832;2023-07-20T00:26:45;16.30;99.90
12470;DHT22;36499;46.484;13.832;2023-07-20T00:29:12;16.40;99.90
12470;DHT22;36499;46.484;13.832;2023-07-20T00:31:39;16.30;99.90
12470;DHT22;36499;46.484;13.832;2023-07-20T00:34:06;16.30;99.90
12470;DHT22;36499;46.484;13.832;2023-07-20T00:36:33;16.30;99.90
12470;DHT22;36499;46.484;13.832;2023-07-20T00:39:00;16.30;99.90
12470;DHT22;36499;46.484;13.832;2023-07-20T00:41:28;16.30;99.90
12470;DHT22;36499;46.484;13.832;2023-07-20T00:43:55;16.30;99.90
12470;DHT22;36499;46.484;13.832;2023-07-20T00:46:23;16.30;99.90
12470;DHT22;36499;46.484;13.832;2023-07-20T00:48:51;16.30;99.90
12470;DHT22;36499;46.484;13.832;2023-07-20T00:51:21;16.30;99.90
12470;DHT22;36499;46.484;13.832;2023-07-20T00:53:49;16.30;99.90
12470;DHT22;36499;46.484;13.832;2023-07-20T00:56:17;16.20;99.90
12470;DHT22;36499;46.484;13.832;2023-07-20T00:58:46;16.10;99.90
12470;DHT22;36499;46.484;13.832;2023-07-20T01:01:13;16.10;99.90
12470;DHT22;36499;46.484;13.832;2023-07-20T01:03:40;16.00;99.90
12470;DHT22;36499;46.484;13.832;2023-07-20T01:06:14;16.10;99.90
12470;DHT22;36499;46.484;13.832;2023-07-20T01:08:57;16.00;99.90
12470;DHT22;36499;46.484;13.832;2023-07-20T01:11:37;16.00;99.90
12470;DHT22;36499;46.484;13.832;2023-07-20T01:14:12;16.00;99.90
12470;DHT22;36499;46.484;13.832;2023-07-20T01:16:40;16.00;99.90
12470;DHT22;36499;46.484;13.832;2023-07-20T01:19:07;15.90;99.90
12470;DHT22;36499;46.484;13.832;2023-07-20T01:21:40;15.90;99.90
12470;DHT22;36499;46.484;13.832;2023-07-20T01:24:32;15.90;99.90
12470;DHT22;36499;46.484;13.832;2023-07-20T01:27:50;15.90;99.90
12470;DHT22;36499;46.484;13.832;2023-07-20T01:30:51;15.90;99.90
12470;DHT22;36499;46.484;13.832;2023-07-20T01:33:24;15.90;99.90
12470;DHT22;36499;46.484;13.832;2023-07-20T01:35:55;15.90;99.90
12470;DHT22;36499;46.484;13.832;2023-07-20T01:38:24;15.80;99.90
12470;DHT22;36499;46.484;13.832;2023-07-20T01:40:52;15.80;99.90
12470;DHT22;36499;46.484;13.832;2023-07-20T01:43:19;15.70;99.90
12470;DHT22;36499;46.484;13.832;2023-07-20T01:45:46;15.70;99.90
12470;DHT22;36499;46.484;13.832;2023-07-20T01:48:14;15.70;99.90
12470;DHT22;36499;46.484;13.832;2023-07-20T01:50:42;15.70;99.90
12470;DHT22;36499;46.484;13.832;2023-07-20T01:53:09;15.60;99.90
12470;DHT22;36499;46.484;13.832;2023-07-20T01:55:36;15.60;99.90
12470;DHT22;36499;46.484;13.832;2023-07-20T01:58:03;15.60;99.90
12470;DHT22;36499;46.484;13.832;2023-07-20T02:00:31;15.60;99.90
12470;DHT22;36499;46.484;13.832;2023-07-20T02:02:59;15.70;99.90
12470;DHT22;36499;46.484;13.832;2023-07-20T02:05:26;15.60;99.90
12470;DHT22;36499;46.484;13.832;2023-07-20T02:07:54;15.60;99.90
12470;DHT22;36499;46.484;13.832;2023-07-20T02:10:21;15.60;99.90
12470;DHT22;36499;46.484;13.832;2023-07-20T02:12:48;15.60;99.90
12470;DHT22;36499;46.484;13.832;2023-07-20T02:15:15;15.60;99.90
12470;DHT22;36499;46.484;13.832;2023-07-20T02:17:44;15.60;99.90
12470;DHT22;36499;46.484;13.832;2023-07-20T02:20:11;15.60;99.90
12470;DHT22;36499;46.484;13.832;2023-07-20T02:22:39;15.50;99.90
12470;DHT22;36499;46.484;13.832;2023-07-20T02:25:08;15.50;99.90
12470;DHT22;36499;46.484;13.832;2023-07-20T02:27:36;15.50;99.90
12470;DHT22;36499;46.484;13.832;2023-07-20T02:30:05;15.50;99.90
12470;DHT22;36499;46.484;13.832;2023-07-20T02:32:34;15.40;99.90
12470;DHT22;36499;46.484;13.832;2023-07-20T02:35:03;15.40;99.90
12470;DHT22;36499;46.484;13.832;2023-07-20T02:37:31;15.40;99.90
12470;DHT22;36499;46.484;13.832;2023-07-20T02:39:59;15.40;99.90
12470;DHT22;36499;46.484;13.832;2023-07-20T02:42:28;15.30;99.90
12470;DHT22;36499;46.484;13.832;2023-07-20T02:44:55;15.20;99.90
12470;DHT22;36499;46.484;13.832;2023-07-20T02:47:22;15.20;99.90
12470;DHT22;36499;46.484;13.832;2023-07-20T02:49:49;15.20;99.90
12470;DHT22;36499;46.484;13.832;2023-07-20T02:52:16;15.20;99.90
12470;DHT22;36499;46.484;13.832;2023-07-20T02:54:43;15.20;99.90
12470;DHT22;36499;46.484;13.832;2023-07-20T02:57:10;15.20;99.90
12470;DHT22;36499;46.484;13.832;2023-07-20T02:59:39;15.20;99.90
12470;DHT22;36499;46.484;13.832;2023-07-20T03:02:06;15.20;99.90
12470;DHT22;36499;46.484;13.832;2023-07-20T03:04:35;15.30;99.90
12470;DHT22;36499;46.484;13.832;2023-07-20T03:07:03;15.20;99.90
12470;DHT22;36499;46.484;13.832;2023-07-20T03:09:31;15.20;99.90
12470;DHT22;36499;46.484;13.832;2023-07-20T03:11:58;15.20;99.90
12470;DHT22;36499;46.484;13.832;2023-07-20T03:14:25;15.20;99.90
12470;DHT22;36499;46.484;13.832;2023-07-20T03:16:53;15.20;99.90
12470;DHT22;36499;46.484;13.832;2023-07-20T03:19:20;15.20;99.90
12470;DHT22;36499;46.484;13.832;2023-07-20T03:21:47;15.10;99.90
12470;DHT22;36499;46.484;13.832;2023-07-20T03:24:15;15.10;99.90
12470;DHT22;36499;46.484;13.832;2023-07-20T03:26:42;15.00;99.90
12470;DHT22;36499;46.484;13.832;2023-07-20T03:29:09;15.10;99.90
12470;DHT22;36499;46.484;13.832;2023-07-20T03:31:36;15.00;99.90
12470;DHT22;36499;46.484;13.832;2023-07-20T03:34:05;15.00;99.90
12470;DHT22;36499;46.484;13.832;2023-07-20T03:36:34;15.00;99.90
12470;DHT22;36499;46.484;13.832;2023-07-20T03:39:01;15.00;99.90
12470;DHT22;36499;46.484;13.832;2023-07-20T03:41:28;15.00;99.90
12470;DHT22;36499;46.484;13.832;2023-07-20T03:43:55;14.90;99.90
12470;DHT22;36499;46.484;13.832;2023-07-20T03:46:23;14.90;99.90
12470;DHT22;36499;46.484;13.832;2023-07-20T03:48:50;14.90;99.90
12470;DHT22;36499;46.484;13.832;2023-07-20T03:51:18;14.90;99.90
12470;DHT22;36499;46.484;13.832;2023-07-20T03:53:45;14.90;99.90
12470;DHT22;36499;46.484;13.832;2023-07-20T03:56:12;15.00;99.90
12470;DHT22;36499;46.484;13.832;2023-07-20T03:58:39;15.00;99.90
12470;DHT22;36499;46.484;13.832;2023-07-20T04:01:07;15.00;99.90
12470;DHT22;36499;46.484;13.832;2023-07-20T04:03:35;15.00;99.90
12470;DHT22;36499;46.484;13.832;2023-07-20T04:06:02;15.00;99.90
12470;DHT22;36499;46.484;13.832;2023-07-20T04:08:31;15.00;99.90
12470;DHT22;36499;46.484;13.832;2023-07-20T04:10:58;15.00;99.90
12470;DHT22;36499;46.484;13.832;2023-07-20T04:13:27;15.00;99.90
12470;DHT22;36499;46.484;13.832;2023-07-20T04:15:58;15.10;99.90
12470;DHT22;36499;46.484;13.832;2023-07-20T04:18:25;15.10;99.90
12470;DHT22;36499;46.484;13.832;2023-07-20T04:20:52;15.10;99.90
12470;DHT22;36499;46.484;13.832;2023-07-20T04:23:20;15.10;99.90
12470;DHT22;36499;46.484;13.832;2023-07-20T04:25:48;15.10;99.90
12470;DHT22;36499;46.484;13.832;2023-07-20T04:28:15;15.10;99.90
12470;DHT22;36499;46.484;13.832;2023-07-20T04:30:42;15.20;99.90
12470;DHT22;36499;46.484;13.832;2023-07-20T04:33:09;15.30;99.90
12470;DHT22;36499;46.484;13.832;2023-07-20T04:35:50;15.20;99.90
12470;DHT22;36499;46.484;13.832;2023-07-20T04:38:18;15.30;99.90
12470;DHT22;36499;46.484;13.832;2023-07-20T04:40:49;15.30;99.90
12470;DHT22;36499;46.484;13.832;2023-07-20T04:43:17;15.30;99.90
12470;DHT22;36499;46.484;13.832;2023-07-20T04:45:45;15.30;99.90
12470;DHT22;36499;46.484;13.832;2023-07-20T04:48:15;15.30;99.90
12470;DHT22;36499;46.484;13.832;2023-07-20T04:50:44;15.40;99.90
12470;DHT22;36499;46.484;13.832;2023-07-20T04:53:12;15.50;99.90
12470;DHT22;36499;46.484;13.832;2023-07-20T04:55:40;15.60;99.90
12470;DHT22;36499;46.484;13.832;2023-07-20T04:58:17;15.60;99.90
12470;DHT22;36499;46.484;13.832;2023-07-20T05:00:44;15.70;99.90
12470;DHT22;36499;46.484;13.832;2023-07-20T05:03:11;15.80;99.90
12470;DHT22;36499;46.484;13.832;2023-07-20T05:05:39;15.80;99.90
12470;DHT22;36499;46.484;13.832;2023-07-20T05:08:06;15.90;99.90
12470;DHT22;36499;46.484;13.832;2023-07-20T05:10:33;15.90;99.90
12470;DHT22;36499;46.484;13.832;2023-07-20T05:13:00;16.00;99.90
12470;DHT22;36499;46.484;13.832;2023-07-20T05:15:28;16.10;99.90
12470;DHT22;36499;46.484;13.832;2023-07-20T05:17:56;16.20;99.90
12470;DHT22;36499;46.484;13.832;2023-07-20T05:20:23;16.20;99.90
12470;DHT22;36499;46.484;13.832;2023-07-20T05:22:50;16.30;99.90
12470;DHT22;36499;46.484;13.832;2023-07-20T05:25:18;16.40;99.90
12470;DHT22;36499;46.484;13.832;2023-07-20T05:27:48;16.50;99.90
12470;DHT22;36499;46.484;13.832;2023-07-20T05:30:16;16.50;99.90
12470;DHT22;36499;46.484;13.832;2023-07-20T05:32:45;16.60;99.90
12470;DHT22;36499;46.484;13.832;2023-07-20T05:35:16;16.60;99.90
12470;DHT22;36499;46.484;13.832;2023-07-20T05:37:43;16.60;99.90
12470;DHT22;36499;46.484;13.832;2023-07-20T05:40:12;16.60;99.90
12470;DHT22;36499;46.484;13.832;2023-07-20T05:42:40;16.70;99.90
12470;DHT22;36499;46.484;13.832;2023-07-20T05:45:07;16.70;99.90
12470;DHT22;36499;46.484;13.832;2023-07-20T05:47:35;16.80;99.90
12470;DHT22;36499;46.484;13.832;2023-07-20T05:50:04;16.90;99.90
12470;DHT22;36499;46.484;13.832;2023-07-20T05:52:32;17.00;99.90
12470;DHT22;36499;46.484;13.832;2023-07-20T05:54:59;17.10;99.90
12470;DHT22;36499;46.484;13.832;2023-07-20T05:57:26;17.20;99.90
12470;DHT22;36499;46.484;13.832;2023-07-20T05:59:53;17.30;99.90
12470;DHT22;36499;46.484;13.832;2023-07-20T06:02:20;17.40;99.90
12470;DHT22;36499;46.484;13.832;2023-07-20T06:04:47;17.40;99.90
12470;DHT22;36499;46.484;13.832;2023-07-20T06:07:16;17.50;99.90
12470;DHT22;36499;46.484;13.832;2023-07-20T06:09:43;17.60;99.90
12470;DHT22;36499;46.484;13.832;2023-07-20T06:12:10;17.60;99.90
12470;DHT22;36499;46.484;13.832;2023-07-20T06:14:41;17.70;99.90
12470;DHT22;36499;46.484;13.832;2023-07-20T06:17:08;17.80;99.90
12470;DHT22;36499;46.484;13.832;2023-07-20T06:19:35;17.90;99.90
12470;DHT22;36499;46.484;13.832;2023-07-20T06:22:03;18.00;99.90
12470;DHT22;36499;46.484;13.832;2023-07-20T06:24:32;18.20;99.90
12470;DHT22;36499;46.484;13.832;2023-07-20T06:26:59;18.30;99.90
12470;DHT22;36499;46.484;13.832;2023-07-20T06:29:26;18.40;99.90
12470;DHT22;36499;46.484;13.832;2023-07-20T06:31:53;18.60;99.90
12470;DHT22;36499;46.484;13.832;2023-07-20T06:34:20;18.70;99.90
12470;DHT22;36499;46.484;13.832;2023-07-20T06:36:47;18.90;99.90
12470;DHT22;36499;46.484;13.832;2023-07-20T06:39:14;19.00;99.90
12470;DHT22;36499;46.484;13.832;2023-07-20T06:41:44;19.00;99.90
12470;DHT22;36499;46.484;13.832;2023-07-20T06:44:11;19.10;99.90
12470;DHT22;36499;46.484;13.832;2023-07-20T06:46:38;19.20;99.90
12470;DHT22;36499;46.484;13.832;2023-07-20T06:49:06;19.40;99.90
12470;DHT22;36499;46.484;13.832;2023-07-20T06:51:34;19.50;99.90
12470;DHT22;36499;46.484;13.832;2023-07-20T06:54:01;19.50;99.90
12470;DHT22;36499;46.484;13.832;2023-07-20T06:56:30;19.60;99.90
12470;DHT22;36499;46.484;13.832;2023-07-20T06:58:58;19.70;99.90
12470;DHT22;36499;46.484;13.832;2023-07-20T07:01:25;19.80;99.90
12470;DHT22;36499;46.484;13.832;2023-07-20T07:03:52;19.90;99.90
12470;DHT22;36499;46.484;13.832;2023-07-20T07:06:19;19.90;99.90
12470;DHT22;36499;46.484;13.832;2023-07-20T07:08:48;19.90;99.90
12470;DHT22;36499;46.484;13.832;2023-07-20T07:11:15;19.90;99.90
12470;DHT22;36499;46.484;13.832;2023-07-20T07:13:42;19.90;99.90
12470;DHT22;36499;46.484;13.832;2023-07-20T07:16:10;19.90;99.90
12470;DHT22;36499;46.484;13.832;2023-07-20T07:18:37;19.90;99.90
12470;DHT22;36499;46.484;13.832;2023-07-20T07:21:05;20.10;99.90
12470;DHT22;36499;46.484;13.832;2023-07-20T07:23:32;20.20;99.90
12470;DHT22;36499;46.484;13.832;2023-07-20T07:25:59;20.50;99.90
12470;DHT22;36499;46.484;13.832;2023-07-20T07:28:28;20.60;99.90
12470;DHT22;36499;46.484;13.832;2023-07-20T07:30:55;20.80;99.90
12470;DHT22;36499;46.484;13.832;2023-07-20T07:33:24;20.90;99.90
12470;DHT22;36499;46.484;13.832;2023-07-20T07:35:52;21.10;99.90
12470;DHT22;36499;46.484;13.832;2023-07-20T07:38:19;21.10;99.90
12470;DHT22;36499;46.484;13.832;2023-07-20T07:40:46;21.20;99.90
12470;DHT22;36499;46.484;13.832;2023-07-20T07:43:13;21.30;99.90
12470;DHT22;36499;46.484;13.832;2023-07-20T07:45:40;21.50;99.90
12470;DHT22;36499;46.484;13.832;2023-07-20T07:48:08;21.60;99.90
12470;DHT22;36499;46.484;13.832;2023-07-20T07:50:38;21.80;99.90
12470;DHT22;36499;46.484;13.832;2023-07-20T07:53:06;22.20;99.90
12470;DHT22;36499;46.484;13.832;2023-07-20T07:55:35;22.50;99.90
12470;DHT22;36499;46.484;13.832;2023-07-20T07:58:02;22.90;99.90
12470;DHT22;36499;46.484;13.832;2023-07-20T08:00:29;23.20;99.90
12470;DHT22;36499;46.484;13.832;2023-07-20T08:02:56;23.50;99.90
12470;DHT22;36499;46.484;13.832;2023-07-20T08:05:24;23.70;99.90
12470;DHT22;36499;46.484;13.832;2023-07-20T08:07:53;24.00;99.90
12470;DHT22;36499;46.484;13.832;2023-07-20T08:10:20;24.20;99.90
12470;DHT22;36499;46.484;13.832;2023-07-20T08:12:47;24.30;99.90
12470;DHT22;36499;46.484;13.832;2023-07-20T08:15:14;24.30;99.90
12470;DHT22;36499;46.484;13.832;2023-07-20T08:17:41;24.10;99.90
12470;DHT22;36499;46.484;13.832;2023-07-20T08:20:09;24.10;99.90
12470;DHT22;36499;46.484;13.832;2023-07-20T08:22:37;24.10;99.90
12470;DHT22;36499;46.484;13.832;2023-07-20T08:25:07;24.00;99.90
12470;DHT22;36499;46.484;13.832;2023-07-20T08:27:35;24.10;99.90
12470;DHT22;36499;46.484;13.832;2023-07-20T08:30:04;24.20;99.90
12470;DHT22;36499;46.484;13.832;2023-07-20T08:32:33;24.40;99.90
12470;DHT22;36499;46.484;13.832;2023-07-20T08:35:00;24.60;99.90
12470;DHT22;36499;46.484;13.832;2023-07-20T08:37:28;24.80;99.90
12470;DHT22;36499;46.484;13.832;2023-07-20T08:39:55;24.90;99.90
12470;DHT22;36499;46.484;13.832;2023-07-20T08:42:23;24.80;99.90
12470;DHT22;36499;46.484;13.832;2023-07-20T08:44:52;24.60;99.90
12470;DHT22;36499;46.484;13.832;2023-07-20T08:47:22;24.50;99.90
12470;DHT22;36499;46.484;13.832;2023-07-20T08:49:53;24.50;99.90
12470;DHT22;36499;46.484;13.832;2023-07-20T08:52:22;24.80;99.90
12470;DHT22;36499;46.484;13.832;2023-07-20T08:54:49;25.10;99.90
12470;DHT22;36499;46.484;13.832;2023-07-20T08:57:19;25.40;99.90
12470;DHT22;36499;46.484;13.832;2023-07-20T08:59:50;25.60;99.90
12470;DHT22;36499;46.484;13.832;2023-07-20T09:02:19;25.80;99.90
12470;DHT22;36499;46.484;13.832;2023-07-20T09:04:51;25.90;99.90
12470;DHT22;36499;46.484;13.832;2023-07-20T09:07:19;26.00;99.90
12470;DHT22;36499;46.484;13.832;2023-07-20T09:09:47;25.90;99.90
12470;DHT22;36499;46.484;13.832;2023-07-20T09:12:14;25.90;99.90
12470;DHT22;36499;46.484;13.832;2023-07-20T09:14:44;25.80;99.90
12470;DHT22;36499;46.484;13.832;2023-07-20T09:17:14;25.90;99.90
12470;DHT22;36499;46.484;13.832;2023-07-20T09:19:46;25.80;99.90
12470;DHT22;36499;46.484;13.832;2023-07-20T09:22:13;25.90;99.90
12470;DHT22;36499;46.484;13.832;2023-07-20T09:24:41;26.00;99.90
12470;DHT22;36499;46.484;13.832;2023-07-20T09:27:08;25.80;99.90
12470;DHT22;36499;46.484;13.832;2023-07-20T09:29:49;25.70;99.90
12470;DHT22;36499;46.484;13.832;2023-07-20T09:32:18;25.50;99.90
12470;DHT22;36499;46.484;13.832;2023-07-20T09:34:47;25.60;99.90
12470;DHT22;36499;46.484;13.832;2023-07-20T09:37:20;25.60;99.90
12470;DHT22;36499;46.484;13.832;2023-07-20T09:39:48;25.80;99.90
12470;DHT22;36499;46.484;13.832;2023-07-20T09:42:17;26.00;99.90
12470;DHT22;36499;46.484;13.832;2023-07-20T09:44:46;26.00;99.90
12470;DHT22;36499;46.484;13.832;2023-07-20T09:47:21;26.00;99.90
12470;DHT22;36499;46.484;13.832;2023-07-20T09:49:49;25.80;99.90
12470;DHT22;36499;46.484;13.832;2023-07-20T09:52:16;25.80;99.90
12470;DHT22;36499;46.484;13.832;2023-07-20T09:54:45;25.80;99.90
12470;DHT22;36499;46.484;13.832;2023-07-20T09:57:13;25.90;99.90
12470;DHT22;36499;46.484;13.832;2023-07-20T09:59:40;26.00;99.90
12470;DHT22;36499;46.484;13.832;2023-07-20T10:02:16;26.00;99.90
12470;DHT22;36499;46.484;13.832;2023-07-20T10:04:52;26.00;99.90
12470;DHT22;36499;46.484;13.832;2023-07-20T10:07:22;26.00;99.90
12470;DHT22;36499;46.484;13.832;2023-07-20T10:09:53;26.10;99.90
12470;DHT22;36499;46.484;13.832;2023-07-20T10:12:23;26.10;99.90
12470;DHT22;36499;46.484;13.832;2023-07-20T10:14:57;26.20;99.90
12470;DHT22;36499;46.484;13.832;2023-07-20T10:17:36;26.50;99.90
12470;DHT22;36499;46.484;13.832;2023-07-20T10:20:07;26.60;99.90
12470;DHT22;36499;46.484;13.832;2023-07-20T10:22:37;26.60;99.90
12470;DHT22;36499;46.484;13.832;2023-07-20T10:25:06;26.50;99.90
12470;DHT22;36499;46.484;13.832;2023-07-20T10:27:34;26.50;99.90
12470;DHT22;36499;46.484;13.832;2023-07-20T10:30:01;26.40;99.90
12470;DHT22;36499;46.484;13.832;2023-07-20T10:32:30;26.30;99.90
12470;DHT22;36499;46.484;13.832;2023-07-20T10:34:58;26.30;99.90
12470;DHT22;36499;46.484;13.832;2023-07-20T10:37:51;26.50;99.90
12470;DHT22;36499;46.484;13.832;2023-07-20T10:40:27;26.70;99.90
12470;DHT22;36499;46.484;13.832;2023-07-20T10:43:03;26.80;99.90
12470;DHT22;36499;46.484;13.832;2023-07-20T10:45:40;26.90;99.90
12470;DHT22;36499;46.484;13.832;2023-07-20T10:48:13;27.00;99.90
12470;DHT22;36499;46.484;13.832;2023-07-20T10:50:43;27.10;99.90
12470;DHT22;36499;46.484;13.832;2023-07-20T10:53:14;27.20;99.90
12470;DHT22;36499;46.484;13.832;2023-07-20T10:55:43;27.00;99.90
12470;DHT22;36499;46.484;13.832;2023-07-20T10:58:16;26.80;99.90
12470;DHT22;36499;46.484;13.832;2023-07-20T11:00:57;26.90;99.90
12470;DHT22;36499;46.484;13.832;2023-07-20T11:03:30;27.00;99.90
12470;DHT22;36499;46.484;13.832;2023-07-20T11:06:00;27.10;99.90
12470;DHT22;36499;46.484;13.832;2023-07-20T11:09:07;27.20;99.90
12470;DHT22;36499;46.484;13.832;2023-07-20T11:11:38;27.20;99.40
12470;DHT22;36499;46.484;13.832;2023-07-20T11:14:07;27.20;98.60
12470;DHT22;36499;46.484;13.832;2023-07-20T11:16:36;27.30;98.70
12470;DHT22;36499;46.484;13.832;2023-07-20T11:19:14;27.30;97.90
12470;DHT22;36499;46.484;13.832;2023-07-20T11:21:45;27.30;98.20
12470;DHT22;36499;46.484;13.832;2023-07-20T11:24:13;27.50;98.20
12470;DHT22;36499;46.484;13.832;2023-07-20T11:26:41;27.40;97.20
12470;DHT22;36499;46.484;13.832;2023-07-20T11:29:09;27.50;96.70
12470;DHT22;36499;46.484;13.832;2023-07-20T11:31:38;27.40;96.20
12470;DHT22;36499;46.484;13.832;2023-07-20T11:34:05;27.00;95.60
12470;DHT22;36499;46.484;13.832;2023-07-20T11:36:33;26.60;95.30
12470;DHT22;36499;46.484;13.832;2023-07-20T11:39:02;26.50;96.20
12470;DHT22;36499;46.484;13.832;2023-07-20T11:41:30;26.70;96.70
12470;DHT22;36499;46.484;13.832;2023-07-20T11:43:58;26.80;96.20
12470;DHT22;36499;46.484;13.832;2023-07-20T11:46:25;26.80;95.40
12470;DHT22;36499;46.484;13.832;2023-07-20T11:48:57;26.60;96.00
12470;DHT22;36499;46.484;13.832;2023-07-20T11:51:26;26.50;95.90
12470;DHT22;36499;46.484;13.832;2023-07-20T11:53:55;26.80;96.00
12470;DHT22;36499;46.484;13.832;2023-07-20T11:56:24;27.00;97.10
12470;DHT22;36499;46.484;13.832;2023-07-20T11:58:55;27.10;96.60
12470;DHT22;36499;46.484;13.832;2023-07-20T12:01:25;27.20;96.40
12470;DHT22;36499;46.484;13.832;2023-07-20T12:03:55;27.30;95.50
12470;DHT22;36499;46.484;13.832;2023-07-20T12:06:24;27.40;96.10
12470;DHT22;36499;46.484;13.832;2023-07-20T12:08:56;27.40;95.90
12470;DHT22;36499;46.484;13.832;2023-07-20T12:11:32;27.30;95.90
12470;DHT22;36499;46.484;13.832;2023-07-20T12:14:00;27.40;94.90
12470;DHT22;36499;46.484;13.832;2023-07-20T12:16:28;27.20;95.50
12470;DHT22;36499;46.484;13.832;2023-07-20T12:19:00;27.20;95.10
12470;DHT22;36499;46.484;13.832;2023-07-20T12:21:28;27.10;95.30
12470;DHT22;36499;46.484;13.832;2023-07-20T12:23:56;27.00;94.80
12470;DHT22;36499;46.484;13.832;2023-07-20T12:26:24;26.70;94.60
12470;DHT22;36499;46.484;13.832;2023-07-20T12:28:53;26.50;95.10
12470;DHT22;36499;46.484;13.832;2023-07-20T12:31:21;26.40;94.80
12470;DHT22;36499;46.484;13.832;2023-07-20T12:33:50;26.30;95.50
12470;DHT22;36499;46.484;13.832;2023-07-20T12:36:17;26.20;96.00
12470;DHT22;36499;46.484;13.832;2023-07-20T12:38:45;26.10;96.40
12470;DHT22;36499;46.484;13.832;2023-07-20T12:41:13;26.00;96.10
12470;DHT22;36499;46.484;13.832;2023-07-20T12:43:40;26.00;96.50
12470;DHT22;36499;46.484;13.832;2023-07-20T12:46:10;25.90;96.80
12470;DHT22;36499;46.484;13.832;2023-07-20T12:48:39;25.70;96.90
12470;DHT22;36499;46.484;13.832;2023-07-20T12:51:07;25.60;97.20
12470;DHT22;36499;46.484;13.832;2023-07-20T12:53:35;25.60;98.30
12470;DHT22;36499;46.484;13.832;2023-07-20T12:56:03;25.90;98.90
12470;DHT22;36499;46.484;13.832;2023-07-20T12:58:30;26.20;97.40
12470;DHT22;36499;46.484;13.832;2023-07-20T13:00:57;26.60;97.00
12470;DHT22;36499;46.484;13.832;2023-07-20T13:03:26;26.80;96.60
12470;DHT22;36499;46.484;13.832;2023-07-20T13:05:53;26.80;96.50
12470;DHT22;36499;46.484;13.832;2023-07-20T13:08:20;26.90;96.40
12470;DHT22;36499;46.484;13.832;2023-07-20T13:10:50;27.00;95.70
12470;DHT22;36499;46.484;13.832;2023-07-20T13:13:18;26.90;96.30
12470;DHT22;36499;46.484;13.832;2023-07-20T13:15:45;26.90;96.60
12470;DHT22;36499;46.484;13.832;2023-07-20T13:18:13;27.10;96.60
12470;DHT22;36499;46.484;13.832;2023-07-20T13:20:42;27.30;96.50
12470;DHT22;36499;46.484;13.832;2023-07-20T13:23:09;27.40;95.40
12470;DHT22;36499;46.484;13.832;2023-07-20T13:25:36;27.40;96.00
12470;DHT22;36499;46.484;13.832;2023-07-20T13:28:04;27.50;96.50
12470;DHT22;36499;46.484;13.832;2023-07-20T13:30:31;27.50;95.80
12470;DHT22;36499;46.484;13.832;2023-07-20T13:32:59;27.50;96.10
12470;DHT22;36499;46.484;13.832;2023-07-20T13:35:26;27.20;95.90
12470;DHT22;36499;46.484;13.832;2023-07-20T13:37:54;27.10;96.80
12470;DHT22;36499;46.484;13.832;2023-07-20T13:40:21;27.20;97.20
12470;DHT22;36499;46.484;13.832;2023-07-20T13:42:49;27.50;97.60
12470;DHT22;36499;46.484;13.832;2023-07-20T13:45:17;27.60;98.00
12470;DHT22;36499;46.484;13.832;2023-07-20T13:47:44;27.70;97.50
12470;DHT22;36499;46.484;13.832;2023-07-20T13:50:11;27.80;98.20
12470;DHT22;36499;46.484;13.832;2023-07-20T13:52:38;28.00;96.80
12470;DHT22;36499;46.484;13.832;2023-07-20T13:55:07;27.90;97.20
12470;DHT22;36499;46.484;13.832;2023-07-20T13:57:34;27.70;97.40
12470;DHT22;36499;46.484;13.832;2023-07-20T14:00:02;27.40;96.90
12470;DHT22;36499;46.484;13.832;2023-07-20T14:02:30;27.00;97.20
12470;DHT22;36499;46.484;13.832;2023-07-20T14:04:57;26.70;98.20
12470;DHT22;36499;46.484;13.832;2023-07-20T14:07:25;26.50;98.60
12470;DHT22;36499;46.484;13.832;2023-07-20T14:09:52;26.20;99.20
12470;DHT22;36499;46.484;13.832;2023-07-20T14:12:20;26.20;99.90
12470;DHT22;36499;46.484;13.832;2023-07-20T14:14:47;26.50;99.90
12470;DHT22;36499;46.484;13.832;2023-07-20T14:17:14;26.80;99.90
12470;DHT22;36499;46.484;13.832;2023-07-20T14:19:41;27.20;99.10
12470;DHT22;36499;46.484;13.832;2023-07-20T14:22:09;27.40;98.40
12470;DHT22;36499;46.484;13.832;2023-07-20T14:24:36;27.40;98.40
12470;DHT22;36499;46.484;13.832;2023-07-20T14:27:03;27.60;99.00
12470;DHT22;36499;46.484;13.832;2023-07-20T14:29:32;27.60;98.30
12470;DHT22;36499;46.484;13.832;2023-07-20T14:32:02;27.60;98.30
12470;DHT22;36499;46.484;13.832;2023-07-20T14:34:31;27.70;98.30
12470;DHT22;36499;46.484;13.832;2023-07-20T14:36:59;27.70;98.70
12470;DHT22;36499;46.484;13.832;2023-07-20T14:39:26;27.80;98.00
12470;DHT22;36499;46.484;13.832;2023-07-20T14:41:53;27.70;98.10
12470;DHT22;36499;46.484;13.832;2023-07-20T14:44:20;27.60;97.80
12470;DHT22;36499;46.484;13.832;2023-07-20T14:46:49;27.60;98.70
12470;DHT22;36499;46.484;13.832;2023-07-20T14:49:16;27.60;98.90
12470;DHT22;36499;46.484;13.832;2023-07-20T14:51:43;27.60;98.30
12470;DHT22;36499;46.484;13.832;2023-07-20T14:54:12;27.70;97.60
12470;DHT22;36499;46.484;13.832;2023-07-20T14:56:39;27.50;98.40
12470;DHT22;36499;46.484;13.832;2023-07-20T14:59:16;27.50;99.00
12470;DHT22;36499;46.484;13.832;2023-07-20T15:01:44;27.60;99.50
12470;DHT22;36499;46.484;13.832;2023-07-20T15:04:13;27.70;99.30
12470;DHT22;36499;46.484;13.832;2023-07-20T15:06:41;27.80;98.30
12470;DHT22;36499;46.484;13.832;2023-07-20T15:09:08;27.80;98.60
12470;DHT22;36499;46.484;13.832;2023-07-20T15:11:36;28.00;98.20
12470;DHT22;36499;46.484;13.832;2023-07-20T15:14:04;27.90;97.90
12470;DHT22;36499;46.484;13.832;2023-07-20T15:16:31;28.00;98.20
12470;DHT22;36499;46.484;13.832;2023-07-20T15:19:01;28.00;98.00
12470;DHT22;36499;46.484;13.832;2023-07-20T15:21:29;28.00;99.00
12470;DHT22;36499;46.484;13.832;2023-07-20T15:23:57;28.00;98.20
12470;DHT22;36499;46.484;13.832;2023-07-20T15:26:25;28.00;98.60